sensor_id;sensor_type;location;lat;lon;timestamp;P1;durP1;ratioP1;P2;durP2;ratioP2
13173;SDS011;6652;48.802;9.190;2024-02-04T00:01:03;0.52;;;0.50;;
13173;SDS011;6652;48.802;9.190;2024-02-04T00:03:30;0.60;;;0.40;;
13173;SDS011;6652;48.802;9.190;2024-02-04T00:06:00;0.52;;;0.40;;
13173;SDS011;6652;48.802;9.190;2024-02-04T00:08:27;0.60;;;0.50;;
13173;SDS011;6652;48.802;9.190;2024-02-04T00:10:56;0.52;;;0.40;;
13173;SDS011;6652;48.802;9.190;2024-02-04T00:13:23;1.00;;;0.60;;
13173;SDS011;6652;48.802;9.190;2024-02-04T00:15:54;0.60;;;0.50;;
13173;SDS011;6652;48.802;9.190;2024-02-04T00:18:23;0.70;;;0.50;;
13173;SDS011;6652;48.802;9.190;2024-02-04T00:20:52;0.40;;;0.40;;
13173;SDS011;6652;48.802;9.190;2024-02-04T00:23:22;0.60;;;0.60;;
13173;SDS011;6652;48.802;9.190;2024-02-04T00:25:49;0.60;;;0.50;;
13173;SDS011;6652;48.802;9.190;2024-02-04T00:28:19;2.78;;;0.50;;
13173;SDS011;6652;48.802;9.190;2024-02-04T00:30:48;1.10;;;0.50;;
13173;SDS011;6652;48.802;9.190;2024-02-04T00:36:14;0.70;;;0.52;;
13173;SDS011;6652;48.802;9.190;2024-02-04T00:38:43;1.30;;;0.50;;
13173;SDS011;6652;48.802;9.190;2024-02-04T00:41:10;0.85;;;0.55;;
13173;SDS011;6652;48.802;9.190;2024-02-04T00:43:40;3.75;;;0.88;;
13173;SDS011;6652;48.802;9.190;2024-02-04T00:46:08;1.17;;;0.82;;
13173;SDS011;6652;48.802;9.190;2024-02-04T00:48:37;0.82;;;0.50;;
13173;SDS011;6652;48.802;9.190;2024-02-04T00:51:05;4.03;;;0.75;;
13173;SDS011;6652;48.802;9.190;2024-02-04T00:53:33;0.85;;;0.60;;
13173;SDS011;6652;48.802;9.190;2024-02-04T00:56:02;0.30;;;0.30;;
13173;SDS011;6652;48.802;9.190;2024-02-04T00:58:30;0.60;;;0.40;;
13173;SDS011;6652;48.802;9.190;2024-02-04T01:00:58;0.95;;;0.40;;
13173;SDS011;6652;48.802;9.190;2024-02-04T01:03:27;0.52;;;0.28;;
13173;SDS011;6652;48.802;9.190;2024-02-04T01:05:56;0.70;;;0.70;;
13173;SDS011;6652;48.802;9.190;2024-02-04T01:08:23;2.72;;;0.22;;
13173;SDS011;6652;48.802;9.190;2024-02-04T01:10:50;0.35;;;0.30;;
13173;SDS011;6652;48.802;9.190;2024-02-04T01:13:19;0.40;;;0.30;;
13173;SDS011;6652;48.802;9.190;2024-02-04T01:15:46;0.82;;;0.38;;
13173;SDS011;6652;48.802;9.190;2024-02-04T01:18:17;0.10;;;0.10;;
13173;SDS011;6652;48.802;9.190;2024-02-04T01:20:46;0.68;;;0.38;;
13173;SDS011;6652;48.802;9.190;2024-02-04T01:23:16;0.25;;;0.25;;
13173;SDS011;6652;48.802;9.190;2024-02-04T01:25:42;0.45;;;0.30;;
13173;SDS011;6652;48.802;9.190;2024-02-04T01:28:10;0.80;;;0.32;;
13173;SDS011;6652;48.802;9.190;2024-02-04T01:30:39;1.20;;;0.47;;
13173;SDS011;6652;48.802;9.190;2024-02-04T01:33:05;0.40;;;0.40;;
13173;SDS011;6652;48.802;9.190;2024-02-04T01:35:33;0.30;;;0.20;;
13173;SDS011;6652;48.802;9.190;2024-02-04T01:37:59;3.30;;;0.20;;
13173;SDS011;6652;48.802;9.190;2024-02-04T01:40:28;0.38;;;0.30;;
13173;SDS011;6652;48.802;9.190;2024-02-04T01:42:57;0.32;;;0.30;;
13173;SDS011;6652;48.802;9.190;2024-02-04T01:45:25;0.20;;;0.20;;
13173;SDS011;6652;48.802;9.190;2024-02-04T01:47:52;0.45;;;0.43;;
13173;SDS011;6652;48.802;9.190;2024-02-04T01:50:21;0.45;;;0.30;;
13173;SDS011;6652;48.802;9.190;2024-02-04T01:52:53;0.85;;;0.40;;
13173;SDS011;6652;48.802;9.190;2024-02-04T01:55:20;1.67;;;0.77;;
13173;SDS011;6652;48.802;9.190;2024-02-04T01:57:49;0.52;;;0.52;;
13173;SDS011;6652;48.802;9.190;2024-02-04T02:00:17;0.20;;;0.20;;
13173;SDS011;6652;48.802;9.190;2024-02-04T02:02:45;0.75;;;0.38;;
13173;SDS011;6652;48.802;9.190;2024-02-04T02:05:13;0.85;;;0.30;;
13173;SDS011;6652;48.802;9.190;2024-02-04T02:07:40;0.85;;;0.40;;
13173;SDS011;6652;48.802;9.190;2024-02-04T02:10:09;0.30;;;0.30;;
13173;SDS011;6652;48.802;9.190;2024-02-04T02:12:39;0.40;;;0.20;;
13173;SDS011;6652;48.802;9.190;2024-02-04T02:15:13;0.60;;;0.40;;
13173;SDS011;6652;48.802;9.190;2024-02-04T02:17:44;0.20;;;0.20;;
13173;SDS011;6652;48.802;9.190;2024-02-04T02:20:21;0.20;;;0.20;;
13173;SDS011;6652;48.802;9.190;2024-02-04T02:22:56;0.43;;;0.30;;
13173;SDS011;6652;48.802;9.190;2024-02-04T02:25:32;0.20;;;0.20;;
13173;SDS011;6652;48.802;9.190;2024-02-04T02:28:02;0.20;;;0.15;;
13173;SDS011;6652;48.802;9.190;2024-02-04T02:30:30;0.20;;;0.20;;
13173;SDS011;6652;48.802;9.190;2024-02-04T02:32:57;0.50;;;0.30;;
13173;SDS011;6652;48.802;9.190;2024-02-04T02:35:25;0.57;;;0.35;;
13173;SDS011;6652;48.802;9.190;2024-02-04T02:37:53;1.40;;;0.85;;
13173;SDS011;6652;48.802;9.190;2024-02-04T02:40:26;0.13;;;0.10;;
13173;SDS011;6652;48.802;9.190;2024-02-04T02:43:02;0.40;;;0.25;;
13173;SDS011;6652;48.802;9.190;2024-02-04T02:45:30;0.38;;;0.30;;
13173;SDS011;6652;48.802;9.190;2024-02-04T02:47:59;0.38;;;0.38;;
13173;SDS011;6652;48.802;9.190;2024-02-04T02:50:27;0.60;;;0.30;;
13173;SDS011;6652;48.802;9.190;2024-02-04T02:52:55;0.55;;;0.20;;
13173;SDS011;6652;48.802;9.190;2024-02-04T02:55:23;0.38;;;0.32;;
13173;SDS011;6652;48.802;9.190;2024-02-04T02:57:50;1.30;;;0.20;;
13173;SDS011;6652;48.802;9.190;2024-02-04T03:00:23;0.22;;;0.20;;
13173;SDS011;6652;48.802;9.190;2024-02-04T03:02:50;0.40;;;0.30;;
13173;SDS011;6652;48.802;9.190;2024-02-04T03:05:17;0.10;;;0.10;;
13173;SDS011;6652;48.802;9.190;2024-02-04T03:07:45;0.20;;;0.20;;
13173;SDS011;6652;48.802;9.190;2024-02-04T03:10:14;0.50;;;0.30;;
13173;SDS011;6652;48.802;9.190;2024-02-04T03:12:43;0.30;;;0.30;;
13173;SDS011;6652;48.802;9.190;2024-02-04T03:15:10;0.35;;;0.35;;
13173;SDS011;6652;48.802;9.190;2024-02-04T03:17:39;0.30;;;0.30;;
13173;SDS011;6652;48.802;9.190;2024-02-04T03:20:06;0.50;;;0.40;;
13173;SDS011;6652;48.802;9.190;2024-02-04T03:22:34;0.30;;;0.30;;
13173;SDS011;6652;48.802;9.190;2024-02-04T03:25:01;0.95;;;0.30;;
13173;SDS011;6652;48.802;9.190;2024-02-04T03:27:28;3.15;;;0.50;;
13173;SDS011;6652;48.802;9.190;2024-02-04T03:29:55;0.68;;;0.30;;
13173;SDS011;6652;48.802;9.190;2024-02-04T03:32:22;0.77;;;0.40;;
13173;SDS011;6652;48.802;9.190;2024-02-04T03:34:50;0.63;;;0.40;;
13173;SDS011;6652;48.802;9.190;2024-02-04T03:37:17;0.30;;;0.30;;
13173;SDS011;6652;48.802;9.190;2024-02-04T03:39:47;1.10;;;0.40;;
13173;SDS011;6652;48.802;9.190;2024-02-04T03:42:14;0.63;;;0.40;;
13173;SDS011;6652;48.802;9.190;2024-02-04T03:44:43;0.43;;;0.30;;
13173;SDS011;6652;48.802;9.190;2024-02-04T03:47:12;0.82;;;0.38;;
13173;SDS011;6652;48.802;9.190;2024-02-04T03:49:41;0.47;;;0.40;;
13173;SDS011;6652;48.802;9.190;2024-02-04T03:52:10;0.20;;;0.20;;
13173;SDS011;6652;48.802;9.190;2024-02-04T03:54:37;0.45;;;0.40;;
13173;SDS011;6652;48.802;9.190;2024-02-04T03:57:04;0.57;;;0.28;;
13173;SDS011;6652;48.802;9.190;2024-02-04T03:59:31;0.10;;;0.10;;
13173;SDS011;6652;48.802;9.190;2024-02-04T04:01:59;0.90;;;0.43;;
13173;SDS011;6652;48.802;9.190;2024-02-04T04:04:26;0.38;;;0.30;;
13173;SDS011;6652;48.802;9.190;2024-02-04T04:06:54;0.20;;;0.20;;
13173;SDS011;6652;48.802;9.190;2024-02-04T04:09:22;0.30;;;0.30;;
13173;SDS011;6652;48.802;9.190;2024-02-04T04:11:49;0.52;;;0.20;;
13173;SDS011;6652;48.802;9.190;2024-02-04T04:14:16;0.30;;;0.28;;
13173;SDS011;6652;48.802;9.190;2024-02-04T04:16:43;0.15;;;0.10;;
13173;SDS011;6652;48.802;9.190;2024-02-04T04:19:11;0.20;;;0.20;;
13173;SDS011;6652;48.802;9.190;2024-02-04T04:21:38;0.20;;;0.17;;
13173;SDS011;6652;48.802;9.190;2024-02-04T04:24:06;0.65;;;0.32;;
13173;SDS011;6652;48.802;9.190;2024-02-04T04:26:34;0.10;;;0.10;;
13173;SDS011;6652;48.802;9.190;2024-02-04T04:29:01;0.45;;;0.38;;
13173;SDS011;6652;48.802;9.190;2024-02-04T04:31:29;0.38;;;0.10;;
13173;SDS011;6652;48.802;9.190;2024-02-04T04:33:56;0.25;;;0.25;;
13173;SDS011;6652;48.802;9.190;2024-02-04T04:36:23;0.20;;;0.20;;
13173;SDS011;6652;48.802;9.190;2024-02-04T04:38:50;0.20;;;0.20;;
13173;SDS011;6652;48.802;9.190;2024-02-04T04:41:17;0.30;;;0.30;;
13173;SDS011;6652;48.802;9.190;2024-02-04T04:43:45;1.55;;;0.20;;
13173;SDS011;6652;48.802;9.190;2024-02-04T04:46:12;0.55;;;0.30;;
13173;SDS011;6652;48.802;9.190;2024-02-04T04:48:39;0.65;;;0.40;;
13173;SDS011;6652;48.802;9.190;2024-02-04T04:51:08;0.20;;;0.20;;
13173;SDS011;6652;48.802;9.190;2024-02-04T04:53:38;1.25;;;0.57;;
13173;SDS011;6652;48.802;9.190;2024-02-04T04:56:10;0.25;;;0.20;;
13173;SDS011;6652;48.802;9.190;2024-02-04T04:58:37;0.20;;;0.20;;
13173;SDS011;6652;48.802;9.190;2024-02-04T05:01:06;2.10;;;0.22;;
13173;SDS011;6652;48.802;9.190;2024-02-04T05:03:34;0.10;;;0.10;;
13173;SDS011;6652;48.802;9.190;2024-02-04T05:06:02;0.40;;;0.22;;
13173;SDS011;6652;48.802;9.190;2024-02-04T05:08:29;0.43;;;0.10;;
13173;SDS011;6652;48.802;9.190;2024-02-04T05:10:57;0.20;;;0.20;;
13173;SDS011;6652;48.802;9.190;2024-02-04T05:13:23;0.40;;;0.20;;
13173;SDS011;6652;48.802;9.190;2024-02-04T05:15:50;0.73;;;0.20;;
13173;SDS011;6652;48.802;9.190;2024-02-04T05:18:21;0.43;;;0.20;;
13173;SDS011;6652;48.802;9.190;2024-02-04T05:20:51;2.05;;;0.40;;
13173;SDS011;6652;48.802;9.190;2024-02-04T05:23:19;0.30;;;0.30;;
13173;SDS011;6652;48.802;9.190;2024-02-04T05:25:46;0.57;;;0.35;;
13173;SDS011;6652;48.802;9.190;2024-02-04T05:28:14;0.45;;;0.20;;
13173;SDS011;6652;48.802;9.190;2024-02-04T05:30:40;2.20;;;0.40;;
13173;SDS011;6652;48.802;9.190;2024-02-04T05:33:06;2.50;;;0.40;;
13173;SDS011;6652;48.802;9.190;2024-02-04T05:35:35;0.38;;;0.38;;
13173;SDS011;6652;48.802;9.190;2024-02-04T05:38:03;3.58;;;2.33;;
13173;SDS011;6652;48.802;9.190;2024-02-04T05:40:31;14.88;;;8.50;;
13173;SDS011;6652;48.802;9.190;2024-02-04T05:42:58;9.77;;;5.10;;
13173;SDS011;6652;48.802;9.190;2024-02-04T05:45:31;4.00;;;2.72;;
13173;SDS011;6652;48.802;9.190;2024-02-04T05:47:59;3.95;;;2.45;;
13173;SDS011;6652;48.802;9.190;2024-02-04T05:50:26;2.75;;;2.03;;
13173;SDS011;6652;48.802;9.190;2024-02-04T05:52:58;3.10;;;2.03;;
13173;SDS011;6652;48.802;9.190;2024-02-04T05:55:25;1.60;;;1.27;;
13173;SDS011;6652;48.802;9.190;2024-02-04T05:57:51;3.00;;;1.10;;
13173;SDS011;6652;48.802;9.190;2024-02-04T06:00:22;1.88;;;0.90;;
13173;SDS011;6652;48.802;9.190;2024-02-04T06:02:51;0.85;;;0.50;;
13173;SDS011;6652;48.802;9.190;2024-02-04T06:05:18;0.50;;;0.50;;
13173;SDS011;6652;48.802;9.190;2024-02-04T06:07:45;0.45;;;0.22;;
13173;SDS011;6652;48.802;9.190;2024-02-04T06:10:14;2.33;;;0.30;;
13173;SDS011;6652;48.802;9.190;2024-02-04T06:12:44;1.33;;;0.90;;
13173;SDS011;6652;48.802;9.190;2024-02-04T06:15:13;1.80;;;1.70;;
13173;SDS011;6652;48.802;9.190;2024-02-04T06:17:42;2.35;;;1.90;;
13173;SDS011;6652;48.802;9.190;2024-02-04T06:20:12;3.55;;;2.75;;
13173;SDS011;6652;48.802;9.190;2024-02-04T06:22:39;1.23;;;1.13;;
13173;SDS011;6652;48.802;9.190;2024-02-04T06:25:07;0.85;;;0.85;;
13173;SDS011;6652;48.802;9.190;2024-02-04T06:27:39;0.35;;;0.35;;
13173;SDS011;6652;48.802;9.190;2024-02-04T06:30:06;0.52;;;0.40;;
13173;SDS011;6652;48.802;9.190;2024-02-04T06:32:34;0.40;;;0.40;;
13173;SDS011;6652;48.802;9.190;2024-02-04T06:35:01;0.30;;;0.30;;
13173;SDS011;6652;48.802;9.190;2024-02-04T06:37:29;0.30;;;0.20;;
13173;SDS011;6652;48.802;9.190;2024-02-04T06:39:56;0.88;;;0.55;;
13173;SDS011;6652;48.802;9.190;2024-02-04T06:42:23;3.95;;;2.45;;
13173;SDS011;6652;48.802;9.190;2024-02-04T06:44:54;6.78;;;3.00;;
13173;SDS011;6652;48.802;9.190;2024-02-04T06:47:21;5.20;;;3.13;;
13173;SDS011;6652;48.802;9.190;2024-02-04T06:49:50;1.52;;;1.15;;
13173;SDS011;6652;48.802;9.190;2024-02-04T06:52:18;3.15;;;2.25;;
13173;SDS011;6652;48.802;9.190;2024-02-04T06:54:45;2.28;;;1.58;;
13173;SDS011;6652;48.802;9.190;2024-02-04T06:57:13;0.52;;;0.45;;
13173;SDS011;6652;48.802;9.190;2024-02-04T06:59:40;0.30;;;0.30;;
13173;SDS011;6652;48.802;9.190;2024-02-04T07:02:10;0.77;;;0.43;;
13173;SDS011;6652;48.802;9.190;2024-02-04T07:04:43;0.80;;;0.20;;
13173;SDS011;6652;48.802;9.190;2024-02-04T07:07:10;2.65;;;0.28;;
13173;SDS011;6652;48.802;9.190;2024-02-04T07:09:44;0.85;;;0.40;;
13173;SDS011;6652;48.802;9.190;2024-02-04T07:12:13;1.98;;;0.10;;
13173;SDS011;6652;48.802;9.190;2024-02-04T07:14:41;4.13;;;0.40;;
13173;SDS011;6652;48.802;9.190;2024-02-04T07:17:12;0.70;;;0.13;;
13173;SDS011;6652;48.802;9.190;2024-02-04T07:19:40;0.90;;;0.20;;
13173;SDS011;6652;48.802;9.190;2024-02-04T07:22:08;0.50;;;0.40;;
13173;SDS011;6652;48.802;9.190;2024-02-04T07:24:40;0.25;;;0.25;;
13173;SDS011;6652;48.802;9.190;2024-02-04T07:27:09;0.43;;;0.38;;
13173;SDS011;6652;48.802;9.190;2024-02-04T07:29:37;3.13;;;0.20;;
13173;SDS011;6652;48.802;9.190;2024-02-04T07:32:05;0.57;;;0.30;;
13173;SDS011;6652;48.802;9.190;2024-02-04T07:34:36;0.38;;;0.15;;
13173;SDS011;6652;48.802;9.190;2024-02-04T07:37:06;0.45;;;0.30;;
13173;SDS011;6652;48.802;9.190;2024-02-04T07:39:34;0.43;;;0.38;;
13173;SDS011;6652;48.802;9.190;2024-02-04T07:42:03;0.25;;;0.25;;
13173;SDS011;6652;48.802;9.190;2024-02-04T07:44:35;0.30;;;0.30;;
13173;SDS011;6652;48.802;9.190;2024-02-04T07:47:02;0.75;;;0.43;;
13173;SDS011;6652;48.802;9.190;2024-02-04T07:49:33;0.70;;;0.40;;
13173;SDS011;6652;48.802;9.190;2024-02-04T07:52:02;0.30;;;0.30;;
13173;SDS011;6652;48.802;9.190;2024-02-04T07:54:31;0.40;;;0.30;;
13173;SDS011;6652;48.802;9.190;2024-02-04T07:57:00;0.40;;;0.30;;
13173;SDS011;6652;48.802;9.190;2024-02-04T07:59:29;0.20;;;0.20;;
13173;SDS011;6652;48.802;9.190;2024-02-04T08:01:56;1.38;;;0.40;;
13173;SDS011;6652;48.802;9.190;2024-02-04T08:04:23;0.57;;;0.40;;
13173;SDS011;6652;48.802;9.190;2024-02-04T08:06:50;0.32;;;0.20;;
13173;SDS011;6652;48.802;9.190;2024-02-04T08:09:19;0.52;;;0.52;;
13173;SDS011;6652;48.802;9.190;2024-02-04T08:11:47;0.20;;;0.20;;
13173;SDS011;6652;48.802;9.190;2024-02-04T08:14:14;0.32;;;0.30;;
13173;SDS011;6652;48.802;9.190;2024-02-04T08:16:42;0.57;;;0.30;;
13173;SDS011;6652;48.802;9.190;2024-02-04T08:19:11;1.65;;;0.40;;
13173;SDS011;6652;48.802;9.190;2024-02-04T08:21:38;0.70;;;0.60;;
13173;SDS011;6652;48.802;9.190;2024-02-04T08:24:06;0.40;;;0.30;;
13173;SDS011;6652;48.802;9.190;2024-02-04T08:26:35;2.33;;;0.38;;
13173;SDS011;6652;48.802;9.190;2024-02-04T08:29:02;1.38;;;0.50;;
13173;SDS011;6652;48.802;9.190;2024-02-04T08:31:31;0.32;;;0.30;;
13173;SDS011;6652;48.802;9.190;2024-02-04T08:33:58;0.47;;;0.40;;
13173;SDS011;6652;48.802;9.190;2024-02-04T08:36:26;1.00;;;0.40;;
13173;SDS011;6652;48.802;9.190;2024-02-04T08:38:54;0.45;;;0.40;;
13173;SDS011;6652;48.802;9.190;2024-02-04T08:41:23;0.77;;;0.43;;
13173;SDS011;6652;48.802;9.190;2024-02-04T08:43:52;0.43;;;0.40;;
13173;SDS011;6652;48.802;9.190;2024-02-04T08:46:20;0.40;;;0.30;;
13173;SDS011;6652;48.802;9.190;2024-02-04T08:48:47;1.35;;;0.50;;
13173;SDS011;6652;48.802;9.190;2024-02-04T08:51:13;0.70;;;0.45;;
13173;SDS011;6652;48.802;9.190;2024-02-04T08:53:44;1.77;;;0.52;;
13173;SDS011;6652;48.802;9.190;2024-02-04T08:56:15;1.00;;;0.65;;
13173;SDS011;6652;48.802;9.190;2024-02-04T08:58:42;0.93;;;0.80;;
13173;SDS011;6652;48.802;9.190;2024-02-04T09:01:12;1.08;;;0.63;;
13173;SDS011;6652;48.802;9.190;2024-02-04T09:03:39;2.25;;;0.60;;
13173;SDS011;6652;48.802;9.190;2024-02-04T09:06:07;0.50;;;0.40;;
13173;SDS011;6652;48.802;9.190;2024-02-04T09:08:41;0.50;;;0.40;;
13173;SDS011;6652;48.802;9.190;2024-02-04T09:11:22;0.68;;;0.57;;
13173;SDS011;6652;48.802;9.190;2024-02-04T09:13:50;0.47;;;0.47;;
13173;SDS011;6652;48.802;9.190;2024-02-04T09:16:21;2.38;;;0.60;;
13173;SDS011;6652;48.802;9.190;2024-02-04T09:18:50;1.45;;;0.70;;
13173;SDS011;6652;48.802;9.190;2024-02-04T09:21:17;1.35;;;0.50;;
13173;SDS011;6652;48.802;9.190;2024-02-04T09:23:47;1.58;;;0.80;;
13173;SDS011;6652;48.802;9.190;2024-02-04T09:26:15;0.50;;;0.50;;
13173;SDS011;6652;48.802;9.190;2024-02-04T09:28:50;1.83;;;0.45;;
13173;SDS011;6652;48.802;9.190;2024-02-04T09:34:48;0.80;;;0.50;;
13173;SDS011;6652;48.802;9.190;2024-02-04T09:37:17;0.70;;;0.60;;
13173;SDS011;6652;48.802;9.190;2024-02-04T09:43:13;3.30;;;0.20;;
13173;SDS011;6652;48.802;9.190;2024-02-04T09:45:44;0.15;;;0.10;;
13173;SDS011;6652;48.802;9.190;2024-02-04T09:48:11;0.50;;;0.30;;
13173;SDS011;6652;48.802;9.190;2024-02-04T09:50:45;0.10;;;0.10;;
13173;SDS011;6652;48.802;9.190;2024-02-04T09:53:21;0.25;;;0.10;;
13173;SDS011;6652;48.802;9.190;2024-02-04T09:56:11;0.22;;;0.10;;
13173;SDS011;6652;48.802;9.190;2024-02-04T09:58:55;2.45;;;0.20;;
13173;SDS011;6652;48.802;9.190;2024-02-04T10:04:51;2.35;;;0.38;;
13173;SDS011;6652;48.802;9.190;2024-02-04T10:14:05;5.88;;;0.60;;
13173;SDS011;6652;48.802;9.190;2024-02-04T10:16:35;1.33;;;0.28;;
13173;SDS011;6652;48.802;9.190;2024-02-04T10:19:05;1.00;;;0.22;;
13173;SDS011;6652;48.802;9.190;2024-02-04T10:21:38;2.03;;;0.28;;
13173;SDS011;6652;48.802;9.190;2024-02-04T10:24:07;0.22;;;0.10;;
13173;SDS011;6652;48.802;9.190;2024-02-04T10:26:39;0.55;;;0.40;;
13173;SDS011;6652;48.802;9.190;2024-02-04T10:29:18;0.10;;;0.10;;
13173;SDS011;6652;48.802;9.190;2024-02-04T10:31:47;0.10;;;0.10;;
13173;SDS011;6652;48.802;9.190;2024-02-04T10:34:16;0.38;;;0.28;;
13173;SDS011;6652;48.802;9.190;2024-02-04T10:36:58;1.30;;;0.35;;
13173;SDS011;6652;48.802;9.190;2024-02-04T10:39:27;0.10;;;0.10;;
13173;SDS011;6652;48.802;9.190;2024-02-04T10:41:54;1.15;;;0.40;;
13173;SDS011;6652;48.802;9.190;2024-02-04T10:44:42;0.68;;;0.17;;
13173;SDS011;6652;48.802;9.190;2024-02-04T10:47:17;0.20;;;0.17;;
13173;SDS011;6652;48.802;9.190;2024-02-04T10:49:50;0.20;;;0.20;;
13173;SDS011;6652;48.802;9.190;2024-02-04T10:55:28;4.07;;;0.20;;
13173;SDS011;6652;48.802;9.190;2024-02-04T10:58:13;0.30;;;0.30;;
13173;SDS011;6652;48.802;9.190;2024-02-04T11:01:00;0.20;;;0.10;;
13173;SDS011;6652;48.802;9.190;2024-02-04T11:03:42;1.02;;;0.43;;
13173;SDS011;6652;48.802;9.190;2024-02-04T11:06:17;2.83;;;0.82;;
13173;SDS011;6652;48.802;9.190;2024-02-04T11:08:49;0.45;;;0.20;;
13173;SDS011;6652;48.802;9.190;2024-02-04T11:11:19;2.33;;;0.60;;
13173;SDS011;6652;48.802;9.190;2024-02-04T11:13:47;1.92;;;0.52;;
13173;SDS011;6652;48.802;9.190;2024-02-04T11:16:20;2.70;;;0.20;;
13173;SDS011;6652;48.802;9.190;2024-02-04T11:21:54;2.42;;;0.50;;
13173;SDS011;6652;48.802;9.190;2024-02-04T11:24:50;4.38;;;0.25;;
13173;SDS011;6652;48.802;9.190;2024-02-04T11:27:25;1.95;;;0.50;;
13173;SDS011;6652;48.802;9.190;2024-02-04T11:29:53;0.63;;;0.20;;
13173;SDS011;6652;48.802;9.190;2024-02-04T11:32:22;1.45;;;0.40;;
13173;SDS011;6652;48.802;9.190;2024-02-04T11:34:50;1.33;;;0.20;;
13173;SDS011;6652;48.802;9.190;2024-02-04T11:37:19;1.38;;;0.35;;
13173;SDS011;6652;48.802;9.190;2024-02-04T11:39:49;0.65;;;0.20;;
13173;SDS011;6652;48.802;9.190;2024-02-04T11:42:17;7.10;;;0.30;;
13173;SDS011;6652;48.802;9.190;2024-02-04T11:44:45;1.75;;;0.13;;
13173;SDS011;6652;48.802;9.190;2024-02-04T11:47:23;3.63;;;0.50;;
13173;SDS011;6652;48.802;9.190;2024-02-04T11:49:54;0.28;;;0.10;;
13173;SDS011;6652;48.802;9.190;2024-02-04T11:52:22;0.35;;;0.30;;
13173;SDS011;6652;48.802;9.190;2024-02-04T11:54:49;2.53;;;0.40;;
13173;SDS011;6652;48.802;9.190;2024-02-04T11:57:17;0.75;;;0.20;;
13173;SDS011;6652;48.802;9.190;2024-02-04T11:59:44;1.98;;;0.30;;
13173;SDS011;6652;48.802;9.190;2024-02-04T12:02:11;0.10;;;0.10;;
13173;SDS011;6652;48.802;9.190;2024-02-04T12:04:40;0.32;;;0.32;;
13173;SDS011;6652;48.802;9.190;2024-02-04T12:07:08;0.82;;;0.20;;
13173;SDS011;6652;48.802;9.190;2024-02-04T12:09:35;0.85;;;0.35;;
13173;SDS011;6652;48.802;9.190;2024-02-04T12:12:04;0.10;;;0.03;;
13173;SDS011;6652;48.802;9.190;2024-02-04T12:14:34;1.65;;;0.20;;
13173;SDS011;6652;48.802;9.190;2024-02-04T12:17:06;0.22;;;0.20;;
13173;SDS011;6652;48.802;9.190;2024-02-04T12:29:13;0.20;;;0.10;;
13173;SDS011;6652;48.802;9.190;2024-02-04T12:31:57;1.98;;;0.22;;
13173;SDS011;6652;48.802;9.190;2024-02-04T12:34:40;3.38;;;0.30;;
13173;SDS011;6652;48.802;9.190;2024-02-04T12:37:12;1.75;;;0.20;;
13173;SDS011;6652;48.802;9.190;2024-02-04T13:15:38;0.38;;;0.20;;
13173;SDS011;6652;48.802;9.190;2024-02-04T13:18:14;0.70;;;0.30;;
13173;SDS011;6652;48.802;9.190;2024-02-04T13:20:44;0.30;;;0.30;;
13173;SDS011;6652;48.802;9.190;2024-02-04T13:23:19;0.30;;;0.10;;
13173;SDS011;6652;48.802;9.190;2024-02-04T13:26:01;0.10;;;0.10;;
13173;SDS011;6652;48.802;9.190;2024-02-04T13:28:41;0.20;;;0.13;;
13173;SDS011;6652;48.802;9.190;2024-02-04T13:31:14;0.10;;;0.10;;
13173;SDS011;6652;48.802;9.190;2024-02-04T13:33:51;0.73;;;0.20;;
13173;SDS011;6652;48.802;9.190;2024-02-04T13:36:33;0.43;;;0.22;;
13173;SDS011;6652;48.802;9.190;2024-02-04T13:39:02;0.13;;;0.13;;
13173;SDS011;6652;48.802;9.190;2024-02-04T13:41:33;0.40;;;0.30;;
13173;SDS011;6652;48.802;9.190;2024-02-04T13:44:14;2.53;;;0.47;;
13173;SDS011;6652;48.802;9.190;2024-02-04T13:46:46;1.30;;;0.93;;
13173;SDS011;6652;48.802;9.190;2024-02-04T13:49:18;0.40;;;0.30;;
13173;SDS011;6652;48.802;9.190;2024-02-04T13:51:59;0.65;;;0.30;;
13173;SDS011;6652;48.802;9.190;2024-02-04T13:54:29;0.30;;;0.30;;
13173;SDS011;6652;48.802;9.190;2024-02-04T13:56:56;0.60;;;0.28;;
13173;SDS011;6652;48.802;9.190;2024-02-04T13:59:40;0.13;;;0.10;;
13173;SDS011;6652;48.802;9.190;2024-02-04T15:25:15;0.57;;;0.20;;
13173;SDS011;6652;48.802;9.190;2024-02-04T15:30:13;0.73;;;0.60;;
13173;SDS011;6652;48.802;9.190;2024-02-04T15:32:46;0.25;;;0.20;;
13173;SDS011;6652;48.802;9.190;2024-02-04T15:35:20;1.58;;;0.50;;
13173;SDS011;6652;48.802;9.190;2024-02-04T15:37:48;0.85;;;0.30;;
13173;SDS011;6652;48.802;9.190;2024-02-04T15:40:18;0.65;;;0.40;;
13173;SDS011;6652;48.802;9.190;2024-02-04T15:42:53;0.80;;;0.80;;
13173;SDS011;6652;48.802;9.190;2024-02-04T15:45:20;0.73;;;0.63;;
13173;SDS011;6652;48.802;9.190;2024-02-04T15:47:48;2.60;;;0.30;;
13173;SDS011;6652;48.802;9.190;2024-02-04T15:50:17;0.43;;;0.30;;
13173;SDS011;6652;48.802;9.190;2024-02-04T15:52:45;1.63;;;0.60;;
13173;SDS011;6652;48.802;9.190;2024-02-04T15:55:14;0.25;;;0.25;;
13173;SDS011;6652;48.802;9.190;2024-02-04T15:57:44;1.77;;;1.00;;
13173;SDS011;6652;48.802;9.190;2024-02-04T16:00:18;0.80;;;0.50;;
13173;SDS011;6652;48.802;9.190;2024-02-04T16:05:50;1.10;;;0.38;;
13173;SDS011;6652;48.802;9.190;2024-02-04T16:08:18;0.60;;;0.50;;
13173;SDS011;6652;48.802;9.190;2024-02-04T16:10:47;0.77;;;0.50;;
13173;SDS011;6652;48.802;9.190;2024-02-04T16:13:18;0.40;;;0.40;;
13173;SDS011;6652;48.802;9.190;2024-02-04T16:15:45;1.10;;;0.70;;
13173;SDS011;6652;48.802;9.190;2024-02-04T16:18:17;3.03;;;0.70;;
13173;SDS011;6652;48.802;9.190;2024-02-04T16:20:48;0.90;;;0.43;;
13173;SDS011;6652;48.802;9.190;2024-02-04T16:23:15;1.02;;;0.43;;
13173;SDS011;6652;48.802;9.190;2024-02-04T16:25:44;0.65;;;0.50;;
13173;SDS011;6652;48.802;9.190;2024-02-04T16:28:14;1.05;;;0.47;;
13173;SDS011;6652;48.802;9.190;2024-02-04T16:30:54;2.90;;;1.38;;
13173;SDS011;6652;48.802;9.190;2024-02-04T16:33:27;0.55;;;0.38;;
13173;SDS011;6652;48.802;9.190;2024-02-04T16:35:58;0.85;;;0.40;;
13173;SDS011;6652;48.802;9.190;2024-02-04T16:38:39;0.60;;;0.30;;
13173;SDS011;6652;48.802;9.190;2024-02-04T16:41:21;0.68;;;0.57;;
13173;SDS011;6652;48.802;9.190;2024-02-04T16:44:05;0.47;;;0.47;;
13173;SDS011;6652;48.802;9.190;2024-02-04T16:46:39;4.53;;;1.65;;
13173;SDS011;6652;48.802;9.190;2024-02-04T16:49:21;0.55;;;0.50;;
13173;SDS011;6652;48.802;9.190;2024-02-04T16:51:50;0.50;;;0.50;;
13173;SDS011;6652;48.802;9.190;2024-02-04T16:54:36;1.05;;;0.68;;
13173;SDS011;6652;48.802;9.190;2024-02-04T16:57:18;0.68;;;0.50;;
13173;SDS011;6652;48.802;9.190;2024-02-04T17:02:47;0.80;;;0.50;;
13173;SDS011;6652;48.802;9.190;2024-02-04T17:05:36;1.50;;;0.80;;
13173;SDS011;6652;48.802;9.190;2024-02-04T17:08:22;0.70;;;0.70;;
13173;SDS011;6652;48.802;9.190;2024-02-04T17:10:51;1.95;;;1.00;;
13173;SDS011;6652;48.802;9.190;2024-02-04T17:13:37;1.65;;;0.80;;
13173;SDS011;6652;48.802;9.190;2024-02-04T17:16:43;2.83;;;0.60;;
13173;SDS011;6652;48.802;9.190;2024-02-04T17:19:27;1.65;;;0.82;;
13173;SDS011;6652;48.802;9.190;2024-02-04T17:22:18;0.95;;;0.60;;
13173;SDS011;6652;48.802;9.190;2024-02-04T17:25:06;1.50;;;0.85;;
13173;SDS011;6652;48.802;9.190;2024-02-04T17:28:06;5.47;;;0.70;;
13173;SDS011;6652;48.802;9.190;2024-02-04T17:31:05;1.15;;;0.85;;
13173;SDS011;6652;48.802;9.190;2024-02-04T17:39:18;1.02;;;0.75;;
13173;SDS011;6652;48.802;9.190;2024-02-04T17:48:39;1.98;;;1.30;;
13173;SDS011;6652;48.802;9.190;2024-02-04T18:15:12;6.68;;;1.20;;
13173;SDS011;6652;48.802;9.190;2024-02-04T18:18:02;2.05;;;1.10;;
13173;SDS011;6652;48.802;9.190;2024-02-04T18:23:32;1.80;;;0.80;;
13173;SDS011;6652;48.802;9.190;2024-02-04T18:26:17;1.83;;;1.15;;
13173;SDS011;6652;48.802;9.190;2024-02-04T18:29:01;1.27;;;0.75;;
13173;SDS011;6652;48.802;9.190;2024-02-04T20:51:45;7.85;;;2.30;;
13173;SDS011;6652;48.802;9.190;2024-02-04T20:54:43;7.50;;;2.75;;
13173;SDS011;6652;48.802;9.190;2024-02-04T20:57:49;5.00;;;1.73;;
13173;SDS011;6652;48.802;9.190;2024-02-04T21:06:28;3.17;;;1.65;;
13173;SDS011;6652;48.802;9.190;2024-02-04T22:58:05;7.10;;;3.17;;
13173;SDS011;6652;48.802;9.190;2024-02-04T23:00:53;6.30;;;3.08;;